Terminal Aerodrome Forecast
Issued by NWS Sterling, VA

Home | Current Version | Previous Version | Text Only | Print | Product List | Glossary On
Versions: 1 2 3 4 5 6 7 8 9 10 11 12 13 14 15 16 17 18 19 20 21
000
FTUS41 KLWX 270527
TAFBWI
TAF
KBWI 270527Z 2706/2812 22007KT 6SM -SHRA FEW008 BKN020 OVC130
     FM270900 33005KT P6SM VCSH BKN050 OVC130
     FM271300 31005KT P6SM BKN050
     FM271600 VRB04KT P6SM SCT200
     FM272000 17005KT P6SM SCT200
     FM280000 VRB03KT P6SM SCT200=

USA.gov is the U.S. government's official web portal to all federal, state and local government web resources and services.